Time;durP1;ratioP1;P1;durP2;ratioP2;P2;SDS_P1;SDS_P2;PMS_P1;PMS_P2;Temp;Humidity;BMP_temperature;BMP_pressure;BME280_temperature;BME280_humidity;BME280_pressure;Samples;Min_cycle;Max_cycle;Signal;HPM_P1;HPM_P2
2023/08/30 06:04:26;;;;;;;;;;;;;;;;;;6293889;22;19945;-94
2023/08/30 06:06:51;;;;;;;;;;;;;;;;;;6283660;22;19910;-94
2023/08/30 06:09:20;;;;;;;;;;;;;;;;;;6282995;22;19903;-95
2023/08/30 06:11:46;;;;;;;;;;;;;;;;;;6283456;22;19903;-90
2023/08/30 06:14:18;;;;;;;;;;;;;;;;;;6292451;22;19910;-92
2023/08/30 06:16:44;;;;;;;;;;;;;;;;;;6296796;22;19919;-93
2023/08/30 06:19:10;;;;;;;;;;;;;;;;;;6285944;22;19906;-96
2023/08/30 06:21:39;;;;;;;;;;;;;;;;;;6284365;22;19910;-91
2023/08/30 06:24:08;;;;;;;;;;;;;;;;;;6279257;22;19899;-92
2023/08/30 06:26:36;;;;;;;;;;;;;;;;;;6279969;22;19903;-94
2023/08/30 06:29:02;;;;;;;;;;;;;;;;;;6278300;22;19903;-95
2023/08/30 06:31:28;;;;;;;;;;;;;;;;;;6279028;22;19903;-95
2023/08/30 06:36:39;;;;;;;;;;;;;;;;;;6284233;22;20407;-95
2023/08/30 06:39:05;;;;;;;;;;;;;;;;;;6281144;22;19907;-96
2023/08/30 06:41:31;;;;;;;;;;;;;;;;;;6282767;22;19903;-94
2023/08/30 06:44:00;;;;;;;;;;;;;;;;;;6280945;22;19907;-95
2023/08/30 06:46:26;;;;;;;;;;;;;;;;;;6281628;22;19903;-94
2023/08/30 06:48:52;;;;;;;;;;;;;;;;;;6279519;22;19911;-94
2023/08/30 06:51:21;;;;;;;;;;;;;;;;;;6279366;22;19909;-94
2023/08/30 06:53:50;;;;;;;;;;;;;;;;;;6293174;22;19954;-94
2023/08/30 06:56:16;;;;;;;;;;;;;;;;;;6282350;22;19903;-96
2023/08/30 06:58:51;;;;;;;;;;;;;;;;;;6280510;22;19910;-95
2023/08/30 07:01:28;;;;;;;;;;;;;;;;;;6280568;22;19904;-96
2023/08/30 07:04:01;;;;;;;;;;;;;;;;;;6280450;22;19910;-95
2023/08/30 07:06:40;;;;;;;;;;;;;;;;;;6290918;22;19923;-95
2023/08/30 07:09:07;;;;;;;;;;;;;;;;;;6278275;22;19899;-95
2023/08/30 07:11:33;;;;;;;;;;;;;;;;;;6277883;22;20366;-94
2023/08/30 07:16:49;;;;;;;;;;;;;;;;;;6288626;22;19926;-91
2023/08/30 07:22:02;;;;;;;;;;;;;;;;;;6279331;22;19910;-95
2023/08/30 07:32:43;;;;;;;;;;;;;;;;;;6278890;22;19910;-90
2023/08/30 07:37:54;;;;;;;;;;;;;;;;;;6281164;22;19954;-95
2023/08/30 07:40:32;;;;;;;;;;;;;;;;;;6281078;22;19903;-93
2023/08/30 07:42:58;;;;;;;;;;;;;;;;;;6282488;22;19903;-95
2023/08/30 07:45:24;;;;;;;;;;;;;;;;;;6278442;22;19922;-95
2023/08/30 07:51:07;;;;;;;;;;;;;;;;;;;;;
2023/08/30 07:53:45;;;;;;;;;;;;;;;;;;6246437;23;19982;-95
2023/08/30 07:56:19;;;;;;;;;;;;;;;;;;6277054;22;19930;-94
2023/08/30 07:58:48;;;;;;;;;;;;;;;;;;6277272;22;19903;-94
2023/08/30 08:01:20;;;;;;;;;;;;;;;;;;6277573;22;19907;-95
2023/08/30 08:09:07;;;;;;;;;;;;;;;;;;6307777;22;19902;-95
2023/08/30 08:14:34;;;;;;;;;;;;;;;;;;6264832;22;19903;-92
2023/08/30 08:20:08;;;;;;;;;;;;;;;;;;6217268;23;19914;-94
2023/08/30 08:33:32;;;;;;;;;;;;;;;;;;6278681;22;19954;-93
2023/08/30 08:36:05;;;;;;;;;;;;;;;;;;6251007;22;19906;-92
2023/08/30 08:38:44;;;;;;;;;;;;;;;;;;;;;
2023/08/30 08:41:53;;;;;;;;;;;;;;;;;;6278460;22;20384;-92
2023/08/30 08:46:58;;;;;;;;;;;;;;;;;;6185781;23;19987;-92
2023/08/30 08:49:31;;;;;;;;;;;;;;;;;;6161158;23;19905;-93
2023/08/30 08:54:53;;;;;;;;;;;;;;;;;;6208022;23;19919;-92
2023/08/30 09:00:05;;;;;;;;;;;;;;;;;;6185172;23;19959;-92
2023/08/30 09:05:15;;;;;;;;;;;;;;;;;;6184865;23;20405;-93
2023/08/30 09:07:44;;;;;;;;;;;;;;;;;;6163190;23;19904;-93
2023/08/30 09:10:10;;;;;;;;;;;;;;;;;;6160730;23;19904;-93
2023/08/30 09:12:36;;;;;;;;;;;;;;;;;;6161478;23;20210;-92
2023/08/30 09:15:11;;;;;;;;;;;;;;;;;;6162930;23;19939;-95
2023/08/30 09:17:49;;;;;;;;;;;;;;;;;;6162433;23;19975;-95
2023/08/30 09:23:13;;;;;;;;;;;;;;;;;;6259589;22;19957;-94
2023/08/30 09:25:48;;;;;;;;;;;;;;;;;;6251674;22;20037;-95
2023/08/30 09:28:14;;;;;;;;;;;;;;;;;;6252958;22;19913;-94
2023/08/30 09:30:40;;;;;;;;;;;;;;;;;;6256052;22;19935;-94
2023/08/30 09:33:06;;;;;;;;;;;;;;;;;;6247991;23;19919;-95
2023/08/30 09:38:17;;;;;;;;;;;;;;;;;;6253578;23;19958;-95
2023/08/30 09:40:44;;;;;;;;;;;;;;;;;;6253736;23;20370;-94
2023/08/30 09:43:23;;;;;;;;;;;;;;;;;;;;;
2023/08/30 10:04:48;;;;;;;;;;;;;;;;;;6315772;22;20373;-95
2023/08/30 10:07:14;;;;;;;;;;;;;;;;;;6289541;22;19929;-96
2023/08/30 10:09:40;;;;;;;;;;;;;;;;;;6293707;22;20312;-96
2023/08/30 10:12:06;;;;;;;;;;;;;;;;;;6288566;22;19907;-96
2023/08/30 10:14:35;;;;;;;;;;;;;;;;;;6298110;22;19933;-96
2023/08/30 10:19:46;;;;;;;;;;;;;;;;;;6304986;22;19926;-95
2023/08/30 10:25:06;;;;;;;;;;;;;;;;;;6277872;22;19918;-94
2023/08/30 10:27:35;;;;;;;;;;;;;;;;;;6287153;22;19935;-94
2023/08/30 10:30:04;;;;;;;;;;;;;;;;;;6277356;22;19926;-92
2023/08/30 10:35:17;;;;;;;;;;;;;;;;;;6310688;22;19978;-95
2023/08/30 10:37:46;;;;;;;;;;;;;;;;;;6284123;22;19948;-92
2023/08/30 10:40:12;;;;;;;;;;;;;;;;;;6284414;22;19907;-94
2023/08/30 10:42:38;;;;;;;;;;;;;;;;;;6285434;22;19965;-95
2023/08/30 10:50:17;;;;;;;;;;;;;;;;;;6282963;22;19966;-92
2023/08/30 10:52:52;;;;;;;;;;;;;;;;;;6263328;22;19899;-96
2023/08/30 10:55:18;;;;;;;;;;;;;;;;;;6274092;22;19949;-95
2023/08/30 10:57:44;;;;;;;;;;;;;;;;;;6281444;22;19963;-94
2023/08/30 11:00:14;;;;;;;;;;;;;;;;;;6286590;22;19906;-96
2023/08/30 11:02:52;;;;;;;;;;;;;;;;;;6280153;22;19903;-93
2023/08/30 11:05:18;;;;;;;;;;;;;;;;;;6277932;22;19988;-93
2023/08/30 11:07:44;;;;;;;;;;;;;;;;;;6278873;22;19903;-95
2023/08/30 11:10:23;;;;;;;;;;;;;;;;;;6284059;22;19895;-94
2023/08/30 11:23:48;;;;;;;;;;;;;;;;;;6325990;22;19894;-96
2023/08/30 11:31:45;;;;;;;;;;;;;;;;;;6334450;22;19926;-91
2023/08/30 11:34:13;;;;;;;;;;;;;;;;;;6282412;22;19903;-92
2023/08/30 11:36:55;;;;;;;;;;;;;;;;;;6282478;22;19927;-92
2023/08/30 13:31:37;;;;;;;;;;;;;;;;;;6316204;22;19926;-96
2023/08/30 13:45:32;;;;;;;;;;;;;;;;;;6241328;22;19923;-96
2023/08/30 13:47:59;;;;;;;;;;;;;;;;;;6196485;23;20320;-95
2023/08/30 13:50:31;;;;;;;;;;;;;;;;;;6196461;23;19904;-95
2023/08/30 13:52:58;;;;;;;;;;;;;;;;;;6234665;22;19938;-95
2023/08/30 13:55:27;;;;;;;;;;;;;;;;;;6278174;22;19910;-96
2023/08/30 13:57:53;;;;;;;;;;;;;;;;;;6284167;22;19907;-95
2023/08/30 14:00:28;;;;;;;;;;;;;;;;;;6258331;22;20090;-94
2023/08/30 14:03:20;;;;;;;;;;;;;;;;;;;;;
2023/08/30 14:06:08;;;;;;;;;;;;;;;;;;;;;
2023/08/30 14:14:14;;;;;;;;;;;;;;;;;;6301014;22;19910;-95
2023/08/30 16:17:23;;;;;;;;;;;;;;;;;;6278933;22;20056;-95
2023/08/30 16:20:02;;;;;;;;;;;;;;;;;;;;;
2023/08/30 16:46:08;;;;;;;;;;;;;;;;;;6282348;22;19966;-96
2023/08/30 17:12:23;;;;;;;;;;;;;;;;;;6280261;22;19923;-96
2023/08/30 17:35:38;;;;;;;;;;;;;;;;;;6292561;22;19919;-96
2023/08/30 18:07:13;;;;;;;;;;;;;;;;;;6286723;22;19942;-96
2023/08/30 18:12:18;;;;;;;;;;;;;;;;;;6262754;22;19915;-94
2023/08/30 18:15:54;;;;;;;;;;;;;;;;;;;;;
2023/08/30 18:59:42;;;;;;;;;;;;;;;;;;6249069;22;19943;-95
2023/08/30 19:02:13;;;;;;;;;;;;;;;;;;6251050;23;20233;-95
2023/08/30 19:04:43;;;;;;;;;;;;;;;;;;6248346;23;20309;-94
2023/08/30 19:07:12;;;;;;;;;;;;;;;;;;6258941;23;19903;-96
2023/08/30 19:09:48;;;;;;;;;;;;;;;;;;6239907;23;19904;-96
